Time,TemperatureF,DewpointF,PressureIn,WindDirection,WindDirectionDegrees,WindSpeedMPH,WindSpeedGustMPH,Humidity,HourlyPrecipIn,Conditions,Clouds,dailyrainin,SoftwareType,DateUTC
2013-02-20 00:02:00,18.6,14.0,30.81,North,0,0.0,0.0,82,0.00,RA,RA,0.00,WeatherDisplay:10.37,2013-02-20 05:02:00,
2013-02-20 00:07:00,18.6,13.7,30.81,North,0,0.0,0.0,81,0.00,RA,RA,0.00,WeatherDisplay:10.37,2013-02-20 05:07:00,
2013-02-20 00:12:00,18.6,13.7,30.81,North,0,0.0,0.0,81,0.00,CLR,CLR,0.00,WeatherDisplay:10.37,2013-02-20 05:12:00,
2013-02-20 00:17:00,18.5,13.7,30.82,North,1,0.0,0.0,81,0.00,CLR,CLR,0.00,WeatherDisplay:10.37,2013-02-20 05:17:00,
2013-02-20 00:22:00,18.5,13.9,30.82,North,1,0.0,0.0,82,0.00,CLR,CLR,0.00,WeatherDisplay:10.37,2013-02-20 05:22:00,
2013-02-20 00:27:00,18.4,13.8,30.82,North,1,0.0,0.0,82,0.00,CLR,CLR,0.00,WeatherDisplay:10.37,2013-02-20 05:27:00,
2013-02-20 00:32:00,18.2,13.4,30.82,North,1,0.0,0.0,81,0.00,CLR,CLR,0.00,WeatherDisplay:10.37,2013-02-20 05:32:00,
2013-02-20 00:37:00,18.1,13.3,30.82,North,1,0.0,0.0,81,0.00,CLR,CLR,0.00,WeatherDisplay:10.37,2013-02-20 05:37:00,
2013-02-20 00:42:00,18.1,13.3,30.82,North,0,0.0,0.0,81,0.00,CLR,CLR,0.00,WeatherDisplay:10.37,2013-02-20 05:42:00,
2013-02-20 00:47:00,18.1,13.0,30.82,North,0,0.0,0.0,80,0.00,CLR,CLR,0.00,WeatherDisplay:10.37,2013-02-20 05:47:00,
2013-02-20 00:52:00,18.1,12.7,30.82,North,0,0.0,0.0,79,0.00,CLR,CLR,0.00,WeatherDisplay:10.37,2013-02-20 05:52:00,
2013-02-20 00:57:00,18.1,12.7,30.82,North,0,0.0,0.0,79,0.00,CLR,CLR,0.00,WeatherDisplay:10.37,2013-02-20 05:57:00,
2013-02-20 01:02:00,18.1,12.4,30.83,North,0,0.0,0.0,78,0.00,CLR,CLR,0.00,WeatherDisplay:10.37,2013-02-20 06:02:00,
2013-02-20 01:07:00,18.2,12.2,30.83,North,1,0.0,0.0,77,0.00,CLR,CLR,0.00,WeatherDisplay:10.37,2013-02-20 06:07:00,
2013-02-20 01:12:00,18.2,11.9,30.83,North,1,0.0,0.0,76,0.00,CLR,CLR,0.00,WeatherDisplay:10.37,2013-02-20 06:12:00,
2013-02-20 01:17:00,18.2,11.9,30.83,North,1,0.0,0.0,76,0.00,CLR,CLR,0.00,WeatherDisplay:10.37,2013-02-20 06:17:00,
2013-02-20 01:22:00,18.2,11.9,30.83,North,2,0.0,0.0,76,0.00,CLR,CLR,0.00,WeatherDisplay:10.37,2013-02-20 06:22:00,
2013-02-20 01:27:00,18.2,11.9,30.83,North,1,0.0,0.0,76,0.00,CLR,CLR,0.00,WeatherDisplay:10.37,2013-02-20 06:27:00,
2013-02-20 01:32:00,18.2,11.6,30.83,North,0,0.0,0.0,75,0.00,CLR,CLR,0.00,WeatherDisplay:10.37,2013-02-20 06:32:00,
2013-02-20 01:37:00,18.1,11.5,30.83,North,0,0.0,0.0,75,0.00,CLR,CLR,0.00,WeatherDisplay:10.37,2013-02-20 06:37:00,
2013-02-20 01:42:00,18.1,11.5,30.83,North,1,0.0,0.0,75,0.00,CLR,CLR,0.00,WeatherDisplay:10.37,2013-02-20 06:42:00,
2013-02-20 01:47:00,18.1,11.5,30.83,North,0,0.0,0.0,75,0.00,CLR,CLR,0.00,WeatherDisplay:10.37,2013-02-20 06:47:00,
2013-02-20 01:52:00,18.1,11.8,30.83,North,1,0.0,0.0,76,0.00,CLR,CLR,0.00,WeatherDisplay:10.37,2013-02-20 06:52:00,
2013-02-20 01:57:00,18.1,11.8,30.83,North,1,0.0,0.0,76,0.00,CLR,CLR,0.00,WeatherDisplay:10.37,2013-02-20 06:57:00,
2013-02-20 02:02:00,18.1,11.8,30.83,North,0,0.0,0.0,76,0.00,CLR,CLR,0.00,WeatherDisplay:10.37,2013-02-20 07:02:00,
2013-02-20 02:07:00,18.1,11.8,30.84,North,1,0.0,0.0,76,0.00,CLR,CLR,0.00,WeatherDisplay:10.37,2013-02-20 07:07:00,
2013-02-20 02:12:00,18.0,12.0,30.83,North,1,0.0,0.0,77,0.00,CLR,CLR,0.00,WeatherDisplay:10.37,2013-02-20 07:12:00,
2013-02-20 02:17:00,18.0,12.0,30.84,North,1,0.0,0.0,77,0.00,CLR,CLR,0.00,WeatherDisplay:10.37,2013-02-20 07:17:00,
2013-02-20 02:22:00,18.0,12.0,30.84,North,1,0.0,0.0,77,0.00,CLR,CLR,0.00,WeatherDisplay:10.37,2013-02-20 07:22:00,
2013-02-20 02:27:00,18.0,12.0,30.84,North,1,0.0,0.0,77,0.00,CLR,CLR,0.00,WeatherDisplay:10.37,2013-02-20 07:27:00,
2013-02-20 02:32:00,18.0,12.0,30.84,North,0,0.0,0.0,77,0.00,CLR,CLR,0.00,WeatherDisplay:10.37,2013-02-20 07:32:00,
2013-02-20 02:37:00,18.0,12.0,30.84,North,1,0.0,0.0,77,0.00,CLR,CLR,0.00,WeatherDisplay:10.37,2013-02-20 07:37:00,
2013-02-20 02:42:00,17.9,11.9,30.84,North,1,0.0,0.0,77,0.00,CLR,CLR,0.00,WeatherDisplay:10.37,2013-02-20 07:42:00,
2013-02-20 02:47:00,17.8,12.1,30.84,North,1,0.0,0.0,78,0.00,CLR,CLR,0.00,WeatherDisplay:10.37,2013-02-20 07:47:00,
2013-02-20 02:52:00,17.8,12.1,30.84,North,0,0.0,0.0,78,0.00,CLR,CLR,0.00,WeatherDisplay:10.37,2013-02-20 07:52:00,
2013-02-20 02:57:00,17.7,12.0,30.84,North,0,0.0,0.0,78,0.00,CLR,CLR,0.00,WeatherDisplay:10.37,2013-02-20 07:57:00,
2013-02-20 03:07:00,17.6,12.2,30.84,North,0,0.0,0.0,79,0.00,CLR,CLR,0.00,WeatherDisplay:10.37,2013-02-20 08:07:00,
2013-02-20 03:12:00,17.6,12.4,30.84,North,0,0.0,0.0,80,0.00,CLR,CLR,0.00,WeatherDisplay:10.37,2013-02-20 08:12:00,
2013-02-20 03:17:00,17.5,12.4,30.83,North,0,0.0,0.0,80,0.00,CLR,CLR,0.00,WeatherDisplay:10.37,2013-02-20 08:17:00,
2013-02-20 03:22:00,17.4,12.6,30.83,North,1,0.0,0.0,81,0.00,CLR,CLR,0.00,WeatherDisplay:10.37,2013-02-20 08:22:00,
2013-02-20 03:27:00,17.4,12.6,30.84,North,1,0.0,0.0,81,0.00,CLR,CLR,0.00,WeatherDisplay:10.37,2013-02-20 08:27:00,
2013-02-20 03:32:00,17.4,12.8,30.84,North,0,0.0,0.0,82,0.00,CLR,CLR,0.00,WeatherDisplay:10.37,2013-02-20 08:32:00,
2013-02-20 03:37:00,17.3,12.7,30.84,North,2,0.0,0.0,82,0.00,CLR,CLR,0.00,WeatherDisplay:10.37,2013-02-20 08:37:00,
2013-02-20 03:42:00,17.4,12.5,30.84,North,2,0.0,0.0,81,0.00,CLR,CLR,0.00,WeatherDisplay:10.37,2013-02-20 08:42:00,
2013-02-20 03:47:00,17.4,12.8,30.84,North,1,0.0,0.0,82,0.00,CLR,CLR,0.00,WeatherDisplay:10.37,2013-02-20 08:47:00,
2013-02-20 03:52:00,17.4,12.8,30.84,North,0,0.0,0.0,82,0.00,CLR,CLR,0.00,WeatherDisplay:10.37,2013-02-20 08:52:00,
2013-02-20 03:57:00,17.3,12.7,30.84,North,0,0.0,0.0,82,0.00,CLR,CLR,0.00,WeatherDisplay:10.37,2013-02-20 08:57:00,
2013-02-20 04:02:00,17.3,13.0,30.84,North,1,0.0,0.0,83,0.00,CLR,CLR,0.00,WeatherDisplay:10.37,2013-02-20 09:02:00,
2013-02-20 04:07:00,17.3,13.0,30.84,North,1,0.0,0.0,83,0.00,CLR,CLR,0.00,WeatherDisplay:10.37,2013-02-20 09:07:00,
2013-02-20 04:12:00,17.3,13.0,30.84,North,0,0.0,0.0,83,0.00,CLR,CLR,0.00,WeatherDisplay:10.37,2013-02-20 09:12:00,
2013-02-20 04:17:00,17.3,13.0,30.85,North,0,0.0,0.0,83,0.00,CLR,CLR,0.00,WeatherDisplay:10.37,2013-02-20 09:17:00,
2013-02-20 04:22:00,17.3,13.0,30.84,North,0,0.0,0.0,83,0.00,CLR,CLR,0.00,WeatherDisplay:10.37,2013-02-20 09:22:00,
2013-02-20 04:27:00,17.3,13.3,30.85,North,1,0.0,0.0,84,0.00,CLR,CLR,0.00,WeatherDisplay:10.37,2013-02-20 09:27:00,
2013-02-20 04:32:00,17.3,13.3,30.85,North,1,0.0,0.0,84,0.00,CLR,CLR,0.00,WeatherDisplay:10.37,2013-02-20 09:32:00,
2013-02-20 04:37:00,17.4,13.4,30.85,North,1,0.0,0.0,84,0.00,CLR,CLR,0.00,WeatherDisplay:10.37,2013-02-20 09:37:00,
2013-02-20 04:42:00,17.4,13.4,30.86,North,1,0.0,0.0,84,0.00,CLR,CLR,0.00,WeatherDisplay:10.37,2013-02-20 09:42:00,
2013-02-20 04:47:00,17.5,13.2,30.86,North,0,0.0,0.0,83,0.00,CLR,CLR,0.00,WeatherDisplay:10.37,2013-02-20 09:47:00,
2013-02-20 04:52:00,17.5,13.2,30.86,North,1,0.0,0.0,83,0.00,CLR,CLR,0.00,WeatherDisplay:10.37,2013-02-20 09:52:00,
2013-02-20 04:57:00,17.9,14.2,30.86,SW,225,9.0,14.0,85,0.00,CLR,CLR,0.00,WeatherDisplay:10.37,2013-02-20 09:57:00,
2013-02-20 05:02:00,18.0,14.0,30.86,SW,218,9.0,13.0,84,0.00,CLR,CLR,0.00,WeatherDisplay:10.37,2013-02-20 10:02:00,
2013-02-20 05:07:00,18.1,14.1,30.86,SW,217,8.0,16.0,84,0.00,CLR,CLR,0.00,WeatherDisplay:10.37,2013-02-20 10:07:00,
2013-02-20 05:12:00,18.1,14.4,30.86,SW,215,9.0,16.0,85,0.00,CLR,CLR,0.00,WeatherDisplay:10.37,2013-02-20 10:12:00,
2013-02-20 05:17:00,18.1,14.4,30.87,SW,221,9.0,13.0,85,0.00,CLR,CLR,0.00,WeatherDisplay:10.37,2013-02-20 10:17:00,
2013-02-20 05:22:00,18.1,14.6,30.87,SW,223,8.0,16.0,86,0.00,CLR,CLR,0.00,WeatherDisplay:10.37,2013-02-20 10:22:00,
2013-02-20 05:27:00,18.1,14.6,30.87,SW,214,13.0,17.0,86,0.00,CLR,CLR,0.00,WeatherDisplay:10.37,2013-02-20 10:27:00,
2013-02-20 05:32:00,18.1,14.6,30.87,SW,214,7.0,12.0,86,0.00,CLR,CLR,0.00,WeatherDisplay:10.37,2013-02-20 10:32:00,
2013-02-20 05:37:00,18.1,14.6,30.87,SW,223,8.0,15.0,86,0.00,CLR,CLR,0.00,WeatherDisplay:10.37,2013-02-20 10:37:00,
2013-02-20 05:42:00,18.1,14.9,30.87,SW,222,8.0,15.0,87,0.00,CLR,CLR,0.00,WeatherDisplay:10.37,2013-02-20 10:42:00,
2013-02-20 05:47:00,18.1,14.9,30.87,SW,222,8.0,12.0,87,0.00,CLR,CLR,0.00,WeatherDisplay:10.37,2013-02-20 10:47:00,
2013-02-20 05:52:00,18.1,14.9,30.88,SW,222,6.0,12.0,87,0.00,CLR,CLR,0.00,WeatherDisplay:10.37,2013-02-20 10:52:00,
2013-02-20 05:57:00,18.2,15.0,30.88,SW,227,7.0,12.0,87,0.00,CLR,CLR,0.00,WeatherDisplay:10.37,2013-02-20 10:57:00,
2013-02-20 06:02:00,18.2,15.0,30.88,SW,230,8.0,12.0,87,0.00,CLR,CLR,0.00,WeatherDisplay:10.37,2013-02-20 11:02:00,
2013-02-20 06:07:00,18.2,15.0,30.88,SW,229,8.0,14.0,87,0.00,CLR,CLR,0.00,WeatherDisplay:10.37,2013-02-20 11:07:00,
2013-02-20 06:12:00,18.2,15.2,30.88,SW,227,8.0,15.0,88,0.00,CLR,CLR,0.00,WeatherDisplay:10.37,2013-02-20 11:12:00,
2013-02-20 06:17:00,18.2,15.0,30.88,SW,232,8.0,18.0,87,0.00,CLR,CLR,0.00,WeatherDisplay:10.37,2013-02-20 11:17:00,
2013-02-20 06:22:00,18.2,15.0,30.88,SW,233,6.0,15.0,87,0.00,CLR,CLR,0.00,WeatherDisplay:10.37,2013-02-20 11:22:00,
2013-02-20 06:27:00,18.2,14.9,30.88,SW,228,7.0,14.0,87,0.00,CLR,CLR,0.00,WeatherDisplay:10.37,2013-02-20 11:27:00,
2013-02-20 06:32:00,18.1,15.1,30.88,SW,227,7.0,12.0,88,0.00,CLR,CLR,0.00,WeatherDisplay:10.37,2013-02-20 11:32:00,
2013-02-20 06:37:00,18.1,15.1,30.88,SW,220,9.0,12.0,88,0.00,CLR,CLR,0.00,WeatherDisplay:10.37,2013-02-20 11:37:00,
2013-02-20 06:42:00,18.1,15.1,30.89,SW,222,9.0,16.0,88,0.00,CLR,CLR,0.00,WeatherDisplay:10.37,2013-02-20 11:42:00,
2013-02-20 06:47:00,18.1,15.1,30.89,SW,230,8.0,16.0,88,0.00,CLR,CLR,0.00,WeatherDisplay:10.37,2013-02-20 11:47:00,
2013-02-20 06:52:00,17.9,15.2,30.89,SW,227,6.0,14.0,89,0.00,CLR,CLR,0.00,WeatherDisplay:10.37,2013-02-20 11:52:00,
2013-02-20 07:02:00,17.8,15.4,30.89,SW,227,7.0,12.0,90,0.00,CLR,CLR,0.00,WeatherDisplay:10.37,2013-02-20 12:02:00,
2013-02-20 07:07:00,17.7,15.3,30.89,SW,229,7.0,9.0,90,0.00,CLR,CLR,0.00,WeatherDisplay:10.37,2013-02-20 12:07:00,
2013-02-20 07:12:00,17.6,15.2,30.90,SW,227,8.0,12.0,90,0.00,CLR,CLR,0.00,WeatherDisplay:10.37,2013-02-20 12:12:00,
2013-02-20 07:17:00,17.6,15.4,30.90,SW,229,5.0,10.0,91,0.00,CLR,CLR,0.00,WeatherDisplay:10.37,2013-02-20 12:17:00,
2013-02-20 07:22:00,17.5,15.4,30.90,SW,229,7.0,9.0,91,0.00,CLR,CLR,0.00,WeatherDisplay:10.37,2013-02-20 12:22:00,
2013-02-20 07:27:00,17.5,15.3,30.90,SW,223,5.0,10.0,91,0.00,CLR,CLR,0.00,WeatherDisplay:10.37,2013-02-20 12:27:00,
2013-02-20 07:32:00,17.5,15.3,30.91,SW,221,6.0,9.0,91,0.00,CLR,CLR,0.00,WeatherDisplay:10.37,2013-02-20 12:32:00,
2013-02-20 07:37:00,17.5,15.3,30.91,SW,221,5.0,8.0,91,0.00,CLR,CLR,0.00,WeatherDisplay:10.37,2013-02-20 12:37:00,
2013-02-20 07:42:00,17.5,15.6,30.91,SW,223,6.0,8.0,92,0.00,CLR,CLR,0.00,WeatherDisplay:10.37,2013-02-20 12:42:00,
2013-02-20 07:47:00,17.5,15.6,30.91,SW,219,5.0,7.0,92,0.00,CLR,CLR,0.00,WeatherDisplay:10.37,2013-02-20 12:47:00,
2013-02-20 07:52:00,17.5,15.6,30.92,SW,225,5.0,8.0,92,0.00,CLR,CLR,0.00,WeatherDisplay:10.37,2013-02-20 12:52:00,
2013-02-20 07:57:00,17.6,15.7,30.92,SW,232,6.0,10.0,92,0.00,CLR,CLR,0.00,WeatherDisplay:10.37,2013-02-20 12:57:00,
2013-02-20 08:02:00,17.6,15.7,30.92,SW,228,5.0,7.0,92,0.00,CLR,CLR,0.00,WeatherDisplay:10.37,2013-02-20 13:02:00,
2013-02-20 08:07:00,17.7,15.8,30.92,SW,224,3.0,6.0,92,0.00,CLR,CLR,0.00,WeatherDisplay:10.37,2013-02-20 13:07:00,
2013-02-20 08:12:00,17.7,15.8,30.92,SW,224,3.0,6.0,92,0.00,CLR,CLR,0.00,WeatherDisplay:10.37,2013-02-20 13:12:00,
2013-02-20 08:17:00,17.8,15.9,30.92,SW,227,3.0,7.0,92,0.00,CLR,CLR,0.00,WeatherDisplay:10.37,2013-02-20 13:17:00,
2013-02-20 08:22:00,17.9,16.0,30.92,SW,225,3.0,5.0,92,0.00,CLR,CLR,0.00,WeatherDisplay:10.37,2013-02-20 13:22:00,
2013-02-20 08:27:00,18.0,16.1,30.92,WSW,238,2.0,5.0,92,0.00,CLR,CLR,0.00,WeatherDisplay:10.37,2013-02-20 13:27:00,
2013-02-20 08:32:00,18.2,16.3,30.92,West,260,3.0,8.0,92,0.00,CLR,CLR,0.00,WeatherDisplay:10.37,2013-02-20 13:32:00,
2013-02-20 08:37:00,18.3,16.1,30.93,West,259,3.0,10.0,91,0.00,CLR,CLR,0.00,WeatherDisplay:10.37,2013-02-20 13:37:00,
2013-02-20 08:42:00,18.3,15.9,30.93,West,262,7.0,12.0,90,0.00,CLR,CLR,0.00,WeatherDisplay:10.37,2013-02-20 13:42:00,
2013-02-20 08:47:00,18.4,15.7,30.93,West,270,3.0,7.0,89,0.00,CLR,CLR,0.00,WeatherDisplay:10.37,2013-02-20 13:47:00,
2013-02-20 08:52:00,18.4,15.4,30.93,WSW,257,5.0,10.0,88,0.00,CLR,CLR,0.00,WeatherDisplay:10.37,2013-02-20 13:52:00,
2013-02-20 08:57:00,18.5,15.3,30.93,WSW,257,6.0,9.0,87,0.00,CLR,CLR,0.00,WeatherDisplay:10.37,2013-02-20 13:57:00,
2013-02-20 09:02:00,18.6,14.8,30.92,West,263,3.0,12.0,85,0.00,CLR,CLR,0.00,WeatherDisplay:10.37,2013-02-20 14:02:00,
2013-02-20 09:07:00,18.7,14.9,30.93,West,262,1.0,9.0,85,0.00,CLR,CLR,0.00,WeatherDisplay:10.37,2013-02-20 14:07:00,
2013-02-20 09:12:00,18.8,14.5,30.93,West,264,7.0,13.0,83,0.00,CLR,CLR,0.00,WeatherDisplay:10.37,2013-02-20 14:12:00,
2013-02-20 09:17:00,19.0,14.4,30.93,West,276,7.0,12.0,82,0.00,CLR,CLR,0.00,WeatherDisplay:10.37,2013-02-20 14:17:00,
2013-02-20 09:22:00,19.1,13.9,30.93,West,271,10.0,15.0,80,0.00,CLR,CLR,0.00,WeatherDisplay:10.37,2013-02-20 14:22:00,
2013-02-20 09:27:00,19.1,13.7,30.93,West,262,8.0,15.0,79,0.00,CLR,CLR,0.00,WeatherDisplay:10.37,2013-02-20 14:27:00,
2013-02-20 09:32:00,19.2,13.5,30.93,West,272,7.0,13.0,78,0.00,CLR,CLR,0.00,WeatherDisplay:10.37,2013-02-20 14:32:00,
2013-02-20 09:37:00,19.2,13.2,30.93,WNW,299,7.0,15.0,77,0.00,CLR,CLR,0.00,WeatherDisplay:10.37,2013-02-20 14:37:00,
2013-02-20 09:42:00,19.2,12.9,30.94,WNW,287,8.0,14.0,76,0.00,CLR,CLR,0.00,WeatherDisplay:10.37,2013-02-20 14:42:00,
2013-02-20 09:47:00,19.3,13.0,30.94,West,280,5.0,14.0,76,0.00,CLR,CLR,0.00,WeatherDisplay:10.37,2013-02-20 14:47:00,
2013-02-20 09:52:00,19.3,12.7,30.94,West,274,10.0,17.0,75,0.00,CLR,CLR,0.00,WeatherDisplay:10.37,2013-02-20 14:52:00,
2013-02-20 09:57:00,19.3,12.7,30.94,West,268,9.0,13.0,75,0.00,CLR,CLR,0.00,WeatherDisplay:10.37,2013-02-20 14:57:00,
2013-02-20 10:02:00,19.3,12.7,30.95,West,272,9.0,15.0,75,0.00,CLR,CLR,0.00,WeatherDisplay:10.37,2013-02-20 15:02:00,
2013-02-20 10:07:00,19.4,12.4,30.95,West,265,9.0,13.0,74,0.00,CLR,CLR,0.00,WeatherDisplay:10.37,2013-02-20 15:07:00,
2013-02-20 10:12:00,19.4,12.4,30.95,West,263,6.0,13.0,74,0.00,CLR,CLR,0.00,WeatherDisplay:10.37,2013-02-20 15:12:00,
2013-02-20 10:17:00,19.4,12.5,30.95,West,275,5.0,18.0,74,0.00,CLR,CLR,0.00,WeatherDisplay:10.37,2013-02-20 15:17:00,
2013-02-20 10:22:00,19.5,12.5,30.95,West,274,6.0,11.0,74,0.00,CLR,CLR,0.00,WeatherDisplay:10.37,2013-02-20 15:22:00,
2013-02-20 10:27:00,19.5,12.3,30.96,West,276,8.0,17.0,73,0.00,CLR,CLR,0.00,WeatherDisplay:10.37,2013-02-20 15:27:00,
2013-02-20 10:32:00,19.4,12.8,30.96,West,275,5.0,13.0,75,0.00,CLR,CLR,0.00,WeatherDisplay:10.37,2013-02-20 15:32:00,
2013-02-20 10:37:00,19.4,13.1,30.96,West,264,9.0,14.0,76,0.00,CLR,CLR,0.00,WeatherDisplay:10.37,2013-02-20 15:37:00,
2013-02-20 10:42:00,19.3,12.7,30.96,West,266,8.0,13.0,75,0.00,CLR,CLR,0.00,WeatherDisplay:10.37,2013-02-20 15:42:00,
2013-02-20 10:47:00,19.4,13.0,30.97,West,269,8.0,13.0,76,0.00,CLR,CLR,0.00,WeatherDisplay:10.37,2013-02-20 15:47:00,
2013-02-20 10:52:00,19.3,13.0,30.97,West,270,8.0,14.0,76,0.00,CLR,CLR,0.00,WeatherDisplay:10.37,2013-02-20 15:52:00,
2013-02-20 10:57:00,19.3,13.0,30.97,West,270,6.0,12.0,76,0.00,CLR,CLR,0.00,WeatherDisplay:10.37,2013-02-20 15:57:00,
2013-02-20 11:02:00,19.5,13.2,30.97,West,266,10.0,16.0,76,0.00,CLR,CLR,0.00,WeatherDisplay:10.37,2013-02-20 16:02:00,
2013-02-20 11:07:00,19.3,13.3,30.98,West,270,10.0,15.0,77,0.00,CLR,CLR,0.00,WeatherDisplay:10.37,2013-02-20 16:07:00,
2013-02-20 11:12:00,19.3,13.6,30.98,West,274,7.0,13.0,78,0.00,CLR,CLR,0.00,WeatherDisplay:10.37,2013-02-20 16:12:00,
2013-02-20 11:17:00,19.5,14.0,30.98,West,272,6.0,12.0,79,0.00,CLR,CLR,0.00,WeatherDisplay:10.37,2013-02-20 16:17:00,
2013-02-20 11:22:00,19.7,14.2,30.98,West,266,6.0,10.0,79,0.00,CLR,CLR,0.00,WeatherDisplay:10.37,2013-02-20 16:22:00,
2013-02-20 11:27:00,19.7,14.5,30.98,West,270,8.0,13.0,80,0.00,CLR,CLR,0.00,WeatherDisplay:10.37,2013-02-20 16:27:00,
2013-02-20 11:32:00,19.5,14.0,30.98,West,263,7.0,14.0,79,0.00,CLR,CLR,0.00,WeatherDisplay:10.37,2013-02-20 16:32:00,
2013-02-20 11:37:00,19.5,13.4,30.99,WSW,254,8.0,14.0,77,0.00,CLR,CLR,0.00,WeatherDisplay:10.37,2013-02-20 16:37:00,
2013-02-20 11:42:00,19.6,13.3,30.99,WSW,254,6.0,12.0,76,0.00,CLR,CLR,0.00,WeatherDisplay:10.37,2013-02-20 16:42:00,
2013-02-20 11:47:00,19.7,13.1,30.99,WSW,251,8.0,20.0,75,0.00,CLR,CLR,0.00,WeatherDisplay:10.37,2013-02-20 16:47:00,
2013-02-20 11:52:00,19.6,13.3,30.99,WSW,255,8.0,13.0,76,0.00,CLR,CLR,0.00,WeatherDisplay:10.37,2013-02-20 16:52:00,
2013-02-20 11:57:00,19.6,14.4,30.99,WSW,251,9.0,13.0,80,0.00,CLR,CLR,0.00,WeatherDisplay:10.37,2013-02-20 16:57:00,
2013-02-20 12:02:00,19.4,14.6,30.99,WSW,252,8.0,13.0,81,0.00,CLR,CLR,0.00,WeatherDisplay:10.37,2013-02-20 17:02:00,
2013-02-20 12:07:00,19.3,14.7,30.99,WSW,256,8.0,16.0,82,0.00,CLR,CLR,0.00,WeatherDisplay:10.37,2013-02-20 17:07:00,
2013-02-20 12:12:00,19.3,14.7,30.99,WNW,291,10.0,16.0,82,0.00,CLR,CLR,0.00,WeatherDisplay:10.37,2013-02-20 17:12:00,
2013-02-20 12:17:00,19.7,14.5,30.99,WSW,253,8.0,13.0,80,0.00,CLR,CLR,0.00,WeatherDisplay:10.37,2013-02-20 17:17:00,
2013-02-20 12:22:00,20.0,13.9,30.99,WSW,257,8.0,16.0,77,0.00,CLR,CLR,0.00,WeatherDisplay:10.37,2013-02-20 17:22:00,
2013-02-20 12:32:00,19.9,15.0,30.99,West,261,10.0,17.0,81,0.00,CLR,CLR,0.00,WeatherDisplay:10.37,2013-02-20 17:32:00,
2013-02-20 12:37:00,19.6,15.0,31.00,WSW,257,10.0,16.0,82,0.00,CLR,CLR,0.00,WeatherDisplay:10.37,2013-02-20 17:37:00,
2013-02-20 12:42:00,19.3,15.3,31.00,WSW,251,9.0,13.0,84,0.00,CLR,CLR,0.00,WeatherDisplay:10.37,2013-02-20 17:42:00,
2013-02-20 12:47:00,19.2,15.4,31.00,WSW,257,8.0,13.0,85,0.00,CLR,CLR,0.00,WeatherDisplay:10.37,2013-02-20 17:47:00,
2013-02-20 12:52:00,19.4,17.7,31.00,West,264,7.0,13.0,93,0.00,CLR,CLR,0.00,WeatherDisplay:10.37,2013-02-20 17:52:00,
2013-02-20 12:57:00,19.4,15.9,31.00,West,262,8.0,13.0,86,0.00,CLR,CLR,0.00,WeatherDisplay:10.37,2013-02-20 17:57:00,
2013-02-20 13:02:00,19.6,15.8,31.00,West,267,7.0,14.0,85,0.00,CLR,CLR,0.00,WeatherDisplay:10.37,2013-02-20 18:02:00,
2013-02-20 13:07:00,20.0,15.4,31.00,West,270,7.0,15.0,82,0.00,CLR,CLR,0.00,WeatherDisplay:10.37,2013-02-20 18:07:00,
2013-02-20 13:12:00,20.6,15.9,31.00,West,260,8.0,12.0,82,0.00,CLR,CLR,0.00,WeatherDisplay:10.37,2013-02-20 18:12:00,
2013-02-20 13:17:00,20.7,15.8,31.00,West,259,7.0,12.0,81,0.00,CLR,CLR,0.00,WeatherDisplay:10.37,2013-02-20 18:17:00,
2013-02-20 13:22:00,20.8,15.0,31.00,West,264,12.0,17.0,78,0.00,CLR,CLR,0.00,WeatherDisplay:10.37,2013-02-20 18:22:00,
2013-02-20 13:27:00,21.1,14.4,31.00,West,273,5.0,16.0,75,0.00,CLR,CLR,0.00,WeatherDisplay:10.37,2013-02-20 18:27:00,
2013-02-20 13:32:00,21.4,14.7,31.00,West,281,7.0,12.0,75,0.00,CLR,CLR,0.00,WeatherDisplay:10.37,2013-02-20 18:32:00,
2013-02-20 13:37:00,21.5,14.5,31.01,West,278,6.0,14.0,74,0.00,CLR,CLR,0.00,WeatherDisplay:10.37,2013-02-20 18:37:00,
2013-02-20 13:42:00,21.9,14.6,31.00,West,272,6.0,10.0,73,0.00,CLR,CLR,0.00,WeatherDisplay:10.37,2013-02-20 18:42:00,
2013-02-20 13:47:00,21.7,13.1,31.01,West,276,12.0,18.0,69,0.00,CLR,CLR,0.00,WeatherDisplay:10.37,2013-02-20 18:47:00,
2013-02-20 13:52:00,21.8,11.8,31.01,WNW,286,8.0,18.0,65,0.00,CLR,CLR,0.00,WeatherDisplay:10.37,2013-02-20 18:52:00,
2013-02-20 13:57:00,22.6,11.1,31.00,WNW,286,9.0,17.0,61,0.00,CLR,CLR,0.00,WeatherDisplay:10.37,2013-02-20 18:57:00,
2013-02-20 14:02:00,22.9,10.3,31.00,West,273,12.0,21.0,58,0.00,CLR,CLR,0.00,WeatherDisplay:10.37,2013-02-20 19:02:00,
2013-02-20 14:07:00,22.3,10.9,31.01,West,264,12.0,16.0,61,0.00,CLR,CLR,0.00,WeatherDisplay:10.37,2013-02-20 19:07:00,
2013-02-20 14:12:00,22.1,11.4,31.01,West,264,8.0,14.0,63,0.00,CLR,CLR,0.00,WeatherDisplay:10.37,2013-02-20 19:12:00,
2013-02-20 14:17:00,21.8,10.0,31.01,West,266,13.0,20.0,60,0.00,CLR,CLR,0.00,WeatherDisplay:10.37,2013-02-20 19:17:00,
2013-02-20 14:22:00,21.6,9.8,31.02,West,265,9.0,21.0,60,0.00,CLR,CLR,0.00,WeatherDisplay:10.37,2013-02-20 19:22:00,
2013-02-20 14:27:00,21.8,10.0,31.01,West,268,12.0,20.0,60,0.00,CLR,CLR,0.00,WeatherDisplay:10.37,2013-02-20 19:27:00,
2013-02-20 14:32:00,21.9,11.2,31.01,West,267,9.0,15.0,63,0.00,CLR,CLR,0.00,WeatherDisplay:10.37,2013-02-20 19:32:00,
2013-02-20 14:37:00,22.3,12.0,31.02,West,263,13.0,20.0,64,0.00,CLR,CLR,0.00,WeatherDisplay:10.37,2013-02-20 19:37:00,
2013-02-20 14:42:00,22.1,12.8,31.02,West,267,10.0,16.0,67,0.00,CLR,CLR,0.00,WeatherDisplay:10.37,2013-02-20 19:42:00,
2013-02-20 14:47:00,21.9,12.3,31.02,West,275,7.0,18.0,66,0.00,CLR,CLR,0.00,WeatherDisplay:10.37,2013-02-20 19:47:00,
2013-02-20 14:52:00,22.0,12.4,31.02,West,273,7.0,12.0,66,0.00,CLR,CLR,0.00,WeatherDisplay:10.37,2013-02-20 19:52:00,
2013-02-20 14:57:00,22.2,12.2,31.02,West,260,7.0,14.0,65,0.00,CLR,CLR,0.00,WeatherDisplay:10.37,2013-02-20 19:57:00,
2013-02-20 15:02:00,22.1,11.4,31.02,West,259,10.0,16.0,63,0.00,CLR,CLR,0.00,WeatherDisplay:10.37,2013-02-20 20:02:00,
2013-02-20 15:07:00,21.9,11.6,31.03,West,261,8.0,15.0,64,0.00,CLR,CLR,0.00,WeatherDisplay:10.37,2013-02-20 20:07:00,
2013-02-20 15:12:00,22.0,12.0,31.03,West,264,8.0,14.0,65,0.00,CLR,CLR,0.00,WeatherDisplay:10.37,2013-02-20 20:12:00,
2013-02-20 15:17:00,22.1,11.7,31.03,WSW,255,9.0,14.0,64,0.00,CLR,CLR,0.00,WeatherDisplay:10.37,2013-02-20 20:17:00,
2013-02-20 15:22:00,22.2,11.5,31.03,WSW,252,9.0,14.0,63,0.00,CLR,CLR,0.00,WeatherDisplay:10.37,2013-02-20 20:22:00,
2013-02-20 15:27:00,22.1,11.0,31.03,WSW,255,8.0,17.0,62,0.00,CLR,CLR,0.00,WeatherDisplay:10.37,2013-02-20 20:27:00,
2013-02-20 15:32:00,22.0,11.0,31.03,West,263,12.0,24.0,62,0.00,CLR,CLR,0.00,WeatherDisplay:10.37,2013-02-20 20:32:00,
2013-02-20 15:37:00,21.9,11.2,31.03,West,263,10.0,18.0,63,0.00,CLR,CLR,0.00,WeatherDisplay:10.37,2013-02-20 20:37:00,
2013-02-20 15:42:00,21.9,11.9,31.04,West,261,8.0,15.0,65,0.00,CLR,CLR,0.00,WeatherDisplay:10.37,2013-02-20 20:42:00,
2013-02-20 15:47:00,21.9,12.7,31.04,West,265,7.0,12.0,67,0.00,CLR,CLR,0.00,WeatherDisplay:10.37,2013-02-20 20:47:00,
2013-02-20 15:52:00,21.7,13.7,31.04,West,259,9.0,15.0,71,0.00,CLR,CLR,0.00,WeatherDisplay:10.37,2013-02-20 20:52:00,
2013-02-20 15:57:00,21.5,13.5,31.04,WSW,250,8.0,13.0,71,0.00,CLR,CLR,0.00,WeatherDisplay:10.37,2013-02-20 20:57:00,
2013-02-20 16:02:00,21.3,13.7,31.04,WSW,255,9.0,17.0,72,0.00,CLR,CLR,0.00,WeatherDisplay:10.37,2013-02-20 21:02:00,
2013-02-20 16:07:00,21.4,13.8,31.04,West,259,8.0,15.0,72,0.00,CLR,CLR,0.00,WeatherDisplay:10.37,2013-02-20 21:07:00,
2013-02-20 16:12:00,21.6,13.6,31.05,West,260,6.0,12.0,71,0.00,CLR,CLR,0.00,WeatherDisplay:10.37,2013-02-20 21:12:00,
2013-02-20 16:17:00,21.7,14.0,31.05,WSW,250,6.0,12.0,72,0.00,CLR,CLR,0.00,WeatherDisplay:10.37,2013-02-20 21:17:00,
2013-02-20 16:22:00,21.7,13.4,31.05,WSW,245,7.0,12.0,70,0.00,CLR,CLR,0.00,WeatherDisplay:10.37,2013-02-20 21:22:00,
2013-02-20 16:27:00,21.8,13.2,31.05,WSW,246,7.0,12.0,69,0.00,CLR,CLR,0.00,WeatherDisplay:10.37,2013-02-20 21:27:00,
2013-02-20 16:32:00,21.9,13.0,31.05,West,259,7.0,13.0,68,0.00,CLR,CLR,0.00,WeatherDisplay:10.37,2013-02-20 21:32:00,
2013-02-20 16:37:00,21.9,13.3,31.06,West,261,6.0,15.0,69,0.00,CLR,CLR,0.00,WeatherDisplay:10.37,2013-02-20 21:37:00,
2013-02-20 16:42:00,22.0,13.0,31.07,West,260,8.0,14.0,68,0.00,CLR,CLR,0.00,WeatherDisplay:10.37,2013-02-20 21:42:00,
2013-02-20 16:47:00,21.9,13.0,31.07,West,261,5.0,14.0,68,0.00,CLR,CLR,0.00,WeatherDisplay:10.37,2013-02-20 21:47:00,
2013-02-20 16:52:00,21.9,13.3,31.07,WSW,253,8.0,13.0,69,0.00,CLR,CLR,0.00,WeatherDisplay:10.37,2013-02-20 21:52:00,
2013-02-20 16:57:00,21.9,13.3,31.07,WSW,250,7.0,12.0,69,0.00,CLR,CLR,0.00,WeatherDisplay:10.37,2013-02-20 21:57:00,
2013-02-20 17:02:00,21.8,13.5,31.08,West,260,12.0,16.0,70,0.00,CLR,CLR,0.00,WeatherDisplay:10.37,2013-02-20 22:02:00,
2013-02-20 17:07:00,21.6,14.0,31.08,WSW,255,8.0,15.0,72,0.00,CLR,CLR,0.00,WeatherDisplay:10.37,2013-02-20 22:07:00,
2013-02-20 17:12:00,21.6,14.0,31.09,WSW,250,7.0,9.0,72,0.00,CLR,CLR,0.00,WeatherDisplay:10.37,2013-02-20 22:12:00,
2013-02-20 17:17:00,21.5,14.2,31.09,WSW,256,6.0,12.0,73,0.00,CLR,CLR,0.00,WeatherDisplay:10.37,2013-02-20 22:17:00,
2013-02-20 17:22:00,21.3,14.6,31.09,West,262,7.0,12.0,75,0.00,CLR,CLR,0.00,WeatherDisplay:10.37,2013-02-20 22:22:00,
2013-02-20 17:27:00,21.4,14.4,31.09,WSW,258,5.0,12.0,74,0.00,CLR,CLR,0.00,WeatherDisplay:10.37,2013-02-20 22:27:00,
2013-02-20 17:32:00,21.3,14.3,31.09,WSW,254,7.0,12.0,74,0.00,CLR,CLR,0.00,WeatherDisplay:10.37,2013-02-20 22:32:00,
2013-02-20 17:37:00,21.3,14.6,31.09,WSW,246,7.0,12.0,75,0.00,CLR,CLR,0.00,WeatherDisplay:10.37,2013-02-20 22:37:00,
2013-02-20 17:42:00,21.2,15.1,31.09,WSW,244,7.0,9.0,77,0.00,CLR,CLR,0.00,WeatherDisplay:10.37,2013-02-20 22:42:00,
2013-02-20 17:47:00,21.1,15.0,31.09,WSW,258,8.0,10.0,77,0.00,CLR,CLR,0.00,WeatherDisplay:10.37,2013-02-20 22:47:00,
2013-02-20 17:52:00,21.1,15.3,31.09,WSW,253,6.0,9.0,78,0.00,CLR,CLR,0.00,WeatherDisplay:10.37,2013-02-20 22:52:00,
2013-02-20 17:57:00,21.0,15.2,31.09,WSW,251,5.0,8.0,78,0.00,CLR,CLR,0.00,WeatherDisplay:10.37,2013-02-20 22:57:00,
2013-02-20 18:02:00,20.9,15.4,31.09,WSW,256,6.0,9.0,79,0.00,CLR,CLR,0.00,WeatherDisplay:10.37,2013-02-20 23:02:00,
2013-02-20 18:07:00,20.8,15.6,31.08,WSW,252,7.0,9.0,80,0.00,CLR,CLR,0.00,WeatherDisplay:10.37,2013-02-20 23:07:00,
2013-02-20 18:12:00,20.7,15.5,31.09,WSW,256,5.0,8.0,80,0.00,CLR,CLR,0.00,WeatherDisplay:10.37,2013-02-20 23:12:00,
2013-02-20 18:17:00,20.7,15.5,31.09,West,264,3.0,6.0,80,0.00,CLR,CLR,0.00,WeatherDisplay:10.37,2013-02-20 23:17:00,
2013-02-20 18:27:00,20.8,15.6,31.09,WSW,250,5.0,7.0,80,0.00,CLR,CLR,0.00,WeatherDisplay:10.37,2013-02-20 23:27:00,
2013-02-20 18:32:00,20.7,15.8,31.08,WSW,246,3.0,7.0,81,0.00,CLR,CLR,0.00,WeatherDisplay:10.37,2013-02-20 23:32:00,
2013-02-20 18:37:00,20.6,16.0,31.08,WSW,242,5.0,6.0,82,0.00,CLR,CLR,0.00,WeatherDisplay:10.37,2013-02-20 23:37:00,
2013-02-20 18:42:00,20.5,15.9,31.09,WSW,238,6.0,7.0,82,0.00,CLR,CLR,0.00,WeatherDisplay:10.37,2013-02-20 23:42:00,
2013-02-20 18:47:00,20.5,16.1,31.08,WSW,239,6.0,8.0,83,0.00,CLR,CLR,0.00,WeatherDisplay:10.37,2013-02-20 23:47:00,
2013-02-20 18:52:00,20.5,16.2,31.09,WSW,241,8.0,12.0,83,0.00,CLR,CLR,0.00,WeatherDisplay:10.37,2013-02-20 23:52:00,
2013-02-20 18:57:00,20.5,16.2,31.09,WSW,247,6.0,10.0,83,0.00,CLR,CLR,0.00,WeatherDisplay:10.37,2013-02-20 23:57:00,
2013-02-20 19:02:00,20.5,16.5,31.09,WSW,251,3.0,7.0,84,0.00,CLR,CLR,0.00,WeatherDisplay:10.37,2013-02-21 00:02:00,
2013-02-20 19:07:00,20.5,16.4,31.09,WSW,244,2.0,7.0,84,0.00,CLR,CLR,0.00,WeatherDisplay:10.37,2013-02-21 00:07:00,
2013-02-20 19:12:00,20.4,16.6,31.09,WSW,243,2.0,6.0,85,0.00,CLR,CLR,0.00,WeatherDisplay:10.37,2013-02-21 00:12:00,
2013-02-20 19:17:00,20.4,16.6,31.09,WSW,248,3.0,6.0,85,0.00,CLR,CLR,0.00,WeatherDisplay:10.37,2013-02-21 00:17:00,
2013-02-20 19:22:00,20.4,16.3,31.09,WSW,258,3.0,7.0,84,0.00,CLR,CLR,0.00,WeatherDisplay:10.37,2013-02-21 00:22:00,
2013-02-20 19:27:00,20.5,16.4,31.09,West,265,3.0,5.0,84,0.00,CLR,CLR,0.00,WeatherDisplay:10.37,2013-02-21 00:27:00,
2013-02-20 19:32:00,20.6,16.3,31.09,WSW,256,3.0,7.0,83,0.00,CLR,CLR,0.00,WeatherDisplay:10.37,2013-02-21 00:32:00,
2013-02-20 19:37:00,20.7,16.1,31.09,West,264,5.0,8.0,82,0.00,CLR,CLR,0.00,WeatherDisplay:10.37,2013-02-21 00:37:00,
2013-02-20 19:42:00,20.8,16.2,31.09,West,267,5.0,8.0,82,0.00,CLR,CLR,0.00,WeatherDisplay:10.37,2013-02-21 00:42:00,
2013-02-20 19:47:00,20.9,16.0,31.09,West,261,2.0,12.0,81,0.00,CLR,CLR,0.00,WeatherDisplay:10.37,2013-02-21 00:47:00,
2013-02-20 19:52:00,20.9,16.0,31.09,WSW,258,3.0,9.0,81,0.00,CLR,CLR,0.00,WeatherDisplay:10.37,2013-02-21 00:52:00,
2013-02-20 19:57:00,21.0,16.1,31.09,West,259,7.0,9.0,81,0.00,CLR,CLR,0.00,WeatherDisplay:10.37,2013-02-21 00:57:00,
2013-02-20 20:02:00,21.1,16.2,31.09,West,260,5.0,9.0,81,0.00,CLR,CLR,0.00,WeatherDisplay:10.37,2013-02-21 01:02:00,
2013-02-20 20:07:00,21.0,16.1,31.09,West,267,5.0,7.0,81,0.00,CLR,CLR,0.00,WeatherDisplay:10.37,2013-02-21 01:07:00,
2013-02-20 20:12:00,21.0,16.4,31.09,West,267,2.0,5.0,82,0.00,CLR,CLR,0.00,WeatherDisplay:10.37,2013-02-21 01:12:00,
2013-02-20 20:17:00,20.9,16.3,31.09,West,259,3.0,8.0,82,0.00,CLR,CLR,0.00,WeatherDisplay:10.37,2013-02-21 01:17:00,
2013-02-20 20:22:00,20.9,16.3,31.09,WSW,258,3.0,8.0,82,0.00,CLR,CLR,0.00,WeatherDisplay:10.37,2013-02-21 01:22:00,
2013-02-20 20:27:00,20.9,16.3,31.09,West,264,3.0,6.0,82,0.00,CLR,CLR,0.00,WeatherDisplay:10.37,2013-02-21 01:27:00,
2013-02-20 20:32:00,20.9,16.5,31.09,West,267,2.0,5.0,83,0.00,CLR,CLR,0.00,WeatherDisplay:10.37,2013-02-21 01:32:00,
2013-02-20 20:37:00,20.9,16.5,31.09,WSW,256,2.0,5.0,83,0.00,CLR,CLR,0.00,WeatherDisplay:10.37,2013-02-21 01:37:00,
2013-02-20 20:42:00,20.8,16.5,31.09,WSW,251,3.0,5.0,83,0.00,CLR,CLR,0.00,WeatherDisplay:10.37,2013-02-21 01:42:00,
2013-02-20 20:47:00,20.8,16.5,31.09,WSW,252,5.0,7.0,83,0.00,CLR,CLR,0.00,WeatherDisplay:10.37,2013-02-21 01:47:00,
2013-02-20 20:52:00,20.8,16.5,31.09,WSW,250,5.0,7.0,83,0.00,CLR,CLR,0.00,WeatherDisplay:10.37,2013-02-21 01:52:00,
2013-02-20 20:57:00,20.4,15.5,31.09,NW,321,0.0,5.0,81,0.00,CLR,CLR,0.00,WeatherDisplay:10.37,2013-02-21 01:57:00,
2013-02-20 21:02:00,20.5,15.6,31.09,North,5,0.0,0.0,81,0.00,CLR,CLR,0.00,WeatherDisplay:10.37,2013-02-21 02:02:00,
2013-02-20 21:07:00,20.5,15.6,31.10,North,1,0.0,0.0,81,0.00,CLR,CLR,0.00,WeatherDisplay:10.37,2013-02-21 02:07:00,
2013-02-20 21:12:00,20.4,15.8,31.10,North,1,0.0,0.0,82,0.00,CLR,CLR,0.00,WeatherDisplay:10.37,2013-02-21 02:12:00,
2013-02-20 21:17:00,20.3,16.0,31.10,North,1,0.0,0.0,83,0.00,CLR,CLR,0.00,WeatherDisplay:10.37,2013-02-21 02:17:00,
2013-02-20 21:22:00,20.3,16.0,31.09,North,1,0.0,0.0,83,0.00,CLR,CLR,0.00,WeatherDisplay:10.37,2013-02-21 02:22:00,
2013-02-20 21:27:00,20.2,16.2,31.09,North,2,0.0,0.0,84,0.00,CLR,CLR,0.00,WeatherDisplay:10.37,2013-02-21 02:27:00,
2013-02-20 21:32:00,20.3,15.9,31.09,North,3,0.0,0.0,83,0.00,CLR,CLR,0.00,WeatherDisplay:10.37,2013-02-21 02:32:00,
2013-02-20 21:37:00,20.2,15.9,31.09,North,3,0.0,0.0,83,0.00,CLR,CLR,0.00,WeatherDisplay:10.37,2013-02-21 02:37:00,
2013-02-20 21:42:00,20.4,16.3,31.09,North,358,0.0,3.0,84,0.00,CLR,CLR,0.00,WeatherDisplay:10.37,2013-02-21 02:42:00,
2013-02-20 21:47:00,20.6,16.8,31.10,WNW,296,2.0,4.0,85,0.00,CLR,CLR,0.00,WeatherDisplay:10.37,2013-02-21 02:47:00,
2013-02-20 21:52:00,20.6,16.8,31.10,West,259,3.0,5.0,85,0.00,CLR,CLR,0.00,WeatherDisplay:10.37,2013-02-21 02:52:00,
2013-02-20 21:57:00,20.7,16.9,31.10,WSW,242,3.0,5.0,85,0.00,CLR,CLR,0.00,WeatherDisplay:10.37,2013-02-21 02:57:00,
2013-02-20 22:02:00,20.6,16.5,31.10,SW,234,2.0,4.0,84,0.00,CLR,CLR,0.00,WeatherDisplay:10.37,2013-02-21 03:02:00,
2013-02-20 22:07:00,20.6,16.5,31.10,SW,232,3.0,5.0,84,0.00,CLR,CLR,0.00,WeatherDisplay:10.37,2013-02-21 03:07:00,
2013-02-20 22:12:00,20.6,16.5,31.10,SW,228,3.0,4.0,84,0.00,CLR,CLR,0.00,WeatherDisplay:10.37,2013-02-21 03:12:00,
2013-02-20 22:17:00,20.5,16.4,31.10,SW,225,2.0,3.0,84,0.00,CLR,CLR,0.00,WeatherDisplay:10.37,2013-02-21 03:17:00,
2013-02-20 22:22:00,20.5,16.7,31.10,SW,229,5.0,6.0,85,0.00,CLR,CLR,0.00,WeatherDisplay:10.37,2013-02-21 03:22:00,
2013-02-20 22:27:00,20.5,16.4,31.10,WSW,238,2.0,4.0,84,0.00,CLR,CLR,0.00,WeatherDisplay:10.37,2013-02-21 03:27:00,
2013-02-20 22:32:00,20.5,16.5,31.10,WSW,244,1.0,4.0,84,0.00,CLR,CLR,0.00,WeatherDisplay:10.37,2013-02-21 03:32:00,
2013-02-20 22:37:00,20.5,16.4,31.10,WSW,244,2.0,3.0,84,0.00,CLR,CLR,0.00,WeatherDisplay:10.37,2013-02-21 03:37:00,
2013-02-20 22:42:00,20.5,16.2,31.10,WSW,244,2.0,4.0,83,0.00,CLR,CLR,0.00,WeatherDisplay:10.37,2013-02-21 03:42:00,
2013-02-20 22:47:00,20.6,16.3,31.10,WSW,244,3.0,4.0,83,0.00,CLR,CLR,0.00,WeatherDisplay:10.37,2013-02-21 03:47:00,
2013-02-20 22:52:00,20.6,16.0,31.10,WSW,244,3.0,7.0,82,0.00,CLR,CLR,0.00,WeatherDisplay:10.37,2013-02-21 03:52:00,
2013-02-20 23:02:00,20.6,16.0,31.09,WSW,243,3.0,8.0,82,0.00,CLR,CLR,0.00,WeatherDisplay:10.37,2013-02-21 04:02:00,
2013-02-20 23:12:00,20.6,16.3,31.09,WSW,248,2.0,5.0,83,0.00,CLR,CLR,0.00,WeatherDisplay:10.37,2013-02-21 04:12:00,
2013-02-20 23:17:00,20.5,16.2,31.09,WSW,244,2.0,5.0,83,0.00,CLR,CLR,0.00,WeatherDisplay:10.37,2013-02-21 04:17:00,
2013-02-20 23:22:00,20.5,16.2,31.09,SW,226,5.0,8.0,83,0.00,CLR,CLR,0.00,WeatherDisplay:10.37,2013-02-21 04:22:00,
2013-02-20 23:27:00,20.5,16.2,31.09,SW,225,2.0,6.0,83,0.00,CLR,CLR,0.00,WeatherDisplay:10.37,2013-02-21 04:27:00,
2013-02-20 23:32:00,20.4,16.1,31.09,WSW,237,3.0,6.0,83,0.00,CLR,CLR,0.00,WeatherDisplay:10.37,2013-02-21 04:32:00,
2013-02-20 23:37:00,20.4,16.3,31.09,WSW,240,2.0,5.0,84,0.00,CLR,CLR,0.00,WeatherDisplay:10.37,2013-02-21 04:37:00,
2013-02-20 23:42:00,20.3,16.2,31.09,SW,229,3.0,5.0,84,0.00,CLR,CLR,0.00,WeatherDisplay:10.37,2013-02-21 04:42:00,
2013-02-20 23:47:00,20.3,16.5,31.09,SW,222,5.0,5.0,85,0.00,CLR,CLR,0.00,WeatherDisplay:10.37,2013-02-21 04:47:00,
2013-02-20 23:52:00,20.2,16.4,31.09,SW,224,3.0,6.0,85,0.00,CLR,CLR,0.00,WeatherDisplay:10.37,2013-02-21 04:52:00,
2013-02-20 23:57:00,20.2,16.4,31.09,SW,221,3.0,5.0,85,0.00,CLR,CLR,0.00,WeatherDisplay:10.37,2013-02-21 04:57:00,